sensor_id;sensor_type;location;lat;lon;timestamp;P1;durP1;ratioP1;P2;durP2;ratioP2
75593;SDS011;64176;49.156;7.810;2023-02-28T00:01:52;3.50;;;2.30;;
75593;SDS011;64176;49.156;7.810;2023-02-28T00:04:36;4.05;;;3.63;;
75593;SDS011;64176;49.156;7.810;2023-02-28T00:07:19;5.82;;;3.40;;
75593;SDS011;64176;49.156;7.810;2023-02-28T00:10:04;4.72;;;2.75;;
75593;SDS011;64176;49.156;7.810;2023-02-28T00:12:59;2.30;;;1.90;;
75593;SDS011;64176;49.156;7.810;2023-02-28T00:15:58;5.57;;;3.28;;
75593;SDS011;64176;49.156;7.810;2023-02-28T00:18:48;2.25;;;1.92;;
75593;SDS011;64176;49.156;7.810;2023-02-28T00:21:33;2.78;;;2.58;;
75593;SDS011;64176;49.156;7.810;2023-02-28T00:24:19;3.08;;;1.85;;
75593;SDS011;64176;49.156;7.810;2023-02-28T00:27:03;2.83;;;2.10;;
75593;SDS011;64176;49.156;7.810;2023-02-28T00:29:50;2.65;;;2.15;;
75593;SDS011;64176;49.156;7.810;2023-02-28T00:32:34;2.38;;;1.63;;
75593;SDS011;64176;49.156;7.810;2023-02-28T00:35:18;5.10;;;2.35;;
75593;SDS011;64176;49.156;7.810;2023-02-28T00:38:02;4.50;;;2.42;;
75593;SDS011;64176;49.156;7.810;2023-02-28T00:40:46;2.25;;;1.70;;
75593;SDS011;64176;49.156;7.810;2023-02-28T00:43:31;2.03;;;1.65;;
75593;SDS011;64176;49.156;7.810;2023-02-28T00:46:19;2.05;;;1.40;;
75593;SDS011;64176;49.156;7.810;2023-02-28T00:49:15;2.42;;;1.65;;
75593;SDS011;64176;49.156;7.810;2023-02-28T00:52:02;2.40;;;1.70;;
75593;SDS011;64176;49.156;7.810;2023-02-28T00:54:48;1.98;;;1.77;;
75593;SDS011;64176;49.156;7.810;2023-02-28T00:57:32;3.45;;;3.15;;
75593;SDS011;64176;49.156;7.810;2023-02-28T01:00:16;1.67;;;1.55;;
75593;SDS011;64176;49.156;7.810;2023-02-28T01:03:00;2.20;;;1.60;;
75593;SDS011;64176;49.156;7.810;2023-02-28T01:05:47;2.72;;;1.95;;
75593;SDS011;64176;49.156;7.810;2023-02-28T01:08:37;2.60;;;1.75;;
75593;SDS011;64176;49.156;7.810;2023-02-28T01:11:24;2.67;;;1.73;;
75593;SDS011;64176;49.156;7.810;2023-02-28T01:14:12;2.20;;;1.83;;
75593;SDS011;64176;49.156;7.810;2023-02-28T01:16:57;4.43;;;2.35;;
75593;SDS011;64176;49.156;7.810;2023-02-28T01:19:45;3.90;;;2.28;;
75593;SDS011;64176;49.156;7.810;2023-02-28T01:22:29;2.88;;;1.75;;
75593;SDS011;64176;49.156;7.810;2023-02-28T01:25:13;2.15;;;1.95;;
75593;SDS011;64176;49.156;7.810;2023-02-28T01:28:02;1.92;;;1.80;;
75593;SDS011;64176;49.156;7.810;2023-02-28T01:30:47;3.40;;;1.92;;
75593;SDS011;64176;49.156;7.810;2023-02-28T01:33:40;1.88;;;1.33;;
75593;SDS011;64176;49.156;7.810;2023-02-28T01:36:25;2.88;;;1.70;;
75593;SDS011;64176;49.156;7.810;2023-02-28T01:39:09;1.77;;;1.63;;
75593;SDS011;64176;49.156;7.810;2023-02-28T01:41:53;1.90;;;1.55;;
75593;SDS011;64176;49.156;7.810;2023-02-28T01:48:16;2.35;;;2.03;;
75593;SDS011;64176;49.156;7.810;2023-02-28T01:51:05;2.25;;;2.03;;
75593;SDS011;64176;49.156;7.810;2023-02-28T01:54:18;2.47;;;1.83;;
75593;SDS011;64176;49.156;7.810;2023-02-28T01:57:17;2.55;;;1.95;;
75593;SDS011;64176;49.156;7.810;2023-02-28T02:00:15;2.85;;;2.05;;
75593;SDS011;64176;49.156;7.810;2023-02-28T02:03:08;2.35;;;1.73;;
75593;SDS011;64176;49.156;7.810;2023-02-28T02:05:59;2.67;;;1.80;;
75593;SDS011;64176;49.156;7.810;2023-02-28T02:08:43;3.88;;;2.05;;
75593;SDS011;64176;49.156;7.810;2023-02-28T02:11:29;3.17;;;2.38;;
75593;SDS011;64176;49.156;7.810;2023-02-28T02:17:39;2.00;;;1.83;;
75593;SDS011;64176;49.156;7.810;2023-02-28T02:39:25;2.33;;;2.13;;
75593;SDS011;64176;49.156;7.810;2023-02-28T02:48:23;2.53;;;1.98;;
75593;SDS011;64176;49.156;7.810;2023-02-28T02:51:17;3.55;;;2.67;;
75593;SDS011;64176;49.156;7.810;2023-02-28T02:54:22;2.53;;;2.00;;
75593;SDS011;64176;49.156;7.810;2023-02-28T02:57:13;4.05;;;2.47;;
75593;SDS011;64176;49.156;7.810;2023-02-28T03:00:18;3.05;;;1.90;;
75593;SDS011;64176;49.156;7.810;2023-02-28T03:03:09;3.67;;;1.90;;
75593;SDS011;64176;49.156;7.810;2023-02-28T03:06:01;3.63;;;2.45;;
75593;SDS011;64176;49.156;7.810;2023-02-28T03:08:49;2.70;;;2.42;;
75593;SDS011;64176;49.156;7.810;2023-02-28T03:11:36;2.05;;;1.85;;
75593;SDS011;64176;49.156;7.810;2023-02-28T03:26:58;5.63;;;2.63;;
75593;SDS011;64176;49.156;7.810;2023-02-28T03:30:00;3.28;;;1.98;;
75593;SDS011;64176;49.156;7.810;2023-02-28T03:35:45;2.58;;;2.15;;
75593;SDS011;64176;49.156;7.810;2023-02-28T03:38:38;3.15;;;2.00;;
75593;SDS011;64176;49.156;7.810;2023-02-28T03:41:32;3.75;;;2.60;;
75593;SDS011;64176;49.156;7.810;2023-02-28T03:44:48;4.35;;;3.17;;
75593;SDS011;64176;49.156;7.810;2023-02-28T03:50:47;5.05;;;2.90;;
75593;SDS011;64176;49.156;7.810;2023-02-28T03:53:39;5.05;;;2.78;;
75593;SDS011;64176;49.156;7.810;2023-02-28T03:56:32;2.97;;;2.30;;
75593;SDS011;64176;49.156;7.810;2023-02-28T03:59:26;3.00;;;2.30;;
75593;SDS011;64176;49.156;7.810;2023-02-28T04:02:16;4.15;;;2.80;;
75593;SDS011;64176;49.156;7.810;2023-02-28T04:05:00;4.95;;;2.90;;
75593;SDS011;64176;49.156;7.810;2023-02-28T04:07:47;3.97;;;2.95;;
75593;SDS011;64176;49.156;7.810;2023-02-28T04:10:32;5.28;;;3.17;;
75593;SDS011;64176;49.156;7.810;2023-02-28T04:13:16;4.72;;;2.67;;
75593;SDS011;64176;49.156;7.810;2023-02-28T04:16:06;3.17;;;2.53;;
75593;SDS011;64176;49.156;7.810;2023-02-28T04:18:55;5.05;;;3.70;;
75593;SDS011;64176;49.156;7.810;2023-02-28T04:21:49;4.82;;;2.92;;
75593;SDS011;64176;49.156;7.810;2023-02-28T04:24:35;5.65;;;2.42;;
75593;SDS011;64176;49.156;7.810;2023-02-28T04:27:27;4.20;;;2.95;;
75593;SDS011;64176;49.156;7.810;2023-02-28T04:30:16;4.78;;;3.75;;
75593;SDS011;64176;49.156;7.810;2023-02-28T04:33:00;3.45;;;3.05;;
75593;SDS011;64176;49.156;7.810;2023-02-28T04:35:44;5.25;;;3.38;;
75593;SDS011;64176;49.156;7.810;2023-02-28T04:38:32;2.72;;;2.53;;
75593;SDS011;64176;49.156;7.810;2023-02-28T04:41:18;5.57;;;2.83;;
75593;SDS011;64176;49.156;7.810;2023-02-28T04:44:03;4.72;;;3.63;;
75593;SDS011;64176;49.156;7.810;2023-02-28T04:46:50;4.00;;;3.03;;
75593;SDS011;64176;49.156;7.810;2023-02-28T04:49:34;5.68;;;3.50;;
75593;SDS011;64176;49.156;7.810;2023-02-28T04:52:20;4.75;;;4.28;;
75593;SDS011;64176;49.156;7.810;2023-02-28T04:55:07;4.10;;;3.13;;
75593;SDS011;64176;49.156;7.810;2023-02-28T04:57:51;4.65;;;3.58;;
75593;SDS011;64176;49.156;7.810;2023-02-28T05:00:37;3.70;;;3.17;;
75593;SDS011;64176;49.156;7.810;2023-02-28T05:03:21;4.93;;;3.17;;
75593;SDS011;64176;49.156;7.810;2023-02-28T05:06:07;6.55;;;3.17;;
75593;SDS011;64176;49.156;7.810;2023-02-28T05:08:54;4.47;;;3.25;;
75593;SDS011;64176;49.156;7.810;2023-02-28T05:11:39;4.15;;;3.58;;
75593;SDS011;64176;49.156;7.810;2023-02-28T05:14:23;8.68;;;3.58;;
75593;SDS011;64176;49.156;7.810;2023-02-28T05:17:08;5.25;;;4.03;;
75593;SDS011;64176;49.156;7.810;2023-02-28T05:19:55;5.85;;;3.83;;
75593;SDS011;64176;49.156;7.810;2023-02-28T05:22:41;7.03;;;4.63;;
75593;SDS011;64176;49.156;7.810;2023-02-28T05:25:26;5.30;;;4.03;;
75593;SDS011;64176;49.156;7.810;2023-02-28T05:28:10;7.10;;;4.50;;
75593;SDS011;64176;49.156;7.810;2023-02-28T05:30:54;5.40;;;3.60;;
75593;SDS011;64176;49.156;7.810;2023-02-28T05:33:40;5.38;;;3.65;;
75593;SDS011;64176;49.156;7.810;2023-02-28T05:36:27;6.05;;;3.28;;
75593;SDS011;64176;49.156;7.810;2023-02-28T05:39:11;4.13;;;3.47;;
75593;SDS011;64176;49.156;7.810;2023-02-28T05:41:56;6.57;;;4.03;;
75593;SDS011;64176;49.156;7.810;2023-02-28T05:44:43;6.05;;;3.33;;
75593;SDS011;64176;49.156;7.810;2023-02-28T05:47:29;5.05;;;4.22;;
75593;SDS011;64176;49.156;7.810;2023-02-28T05:50:17;7.50;;;4.13;;
75593;SDS011;64176;49.156;7.810;2023-02-28T05:53:03;5.25;;;4.18;;
75593;SDS011;64176;49.156;7.810;2023-02-28T05:55:47;6.57;;;5.93;;
75593;SDS011;64176;49.156;7.810;2023-02-28T05:58:31;5.28;;;4.55;;
75593;SDS011;64176;49.156;7.810;2023-02-28T06:01:19;7.47;;;3.97;;
75593;SDS011;64176;49.156;7.810;2023-02-28T06:04:16;4.60;;;3.08;;
75593;SDS011;64176;49.156;7.810;2023-02-28T06:07:03;6.70;;;3.90;;
75593;SDS011;64176;49.156;7.810;2023-02-28T06:09:47;6.63;;;4.03;;
75593;SDS011;64176;49.156;7.810;2023-02-28T06:12:37;4.28;;;2.33;;
75593;SDS011;64176;49.156;7.810;2023-02-28T06:15:24;6.97;;;4.63;;
75593;SDS011;64176;49.156;7.810;2023-02-28T06:18:10;7.68;;;6.90;;
75593;SDS011;64176;49.156;7.810;2023-02-28T06:20:57;3.33;;;2.97;;
75593;SDS011;64176;49.156;7.810;2023-02-28T06:23:41;4.80;;;3.85;;
75593;SDS011;64176;49.156;7.810;2023-02-28T06:26:25;4.28;;;3.60;;
75593;SDS011;64176;49.156;7.810;2023-02-28T06:29:09;10.07;;;6.20;;
75593;SDS011;64176;49.156;7.810;2023-02-28T06:31:53;5.78;;;4.20;;
75593;SDS011;64176;49.156;7.810;2023-02-28T06:34:40;6.32;;;5.25;;
75593;SDS011;64176;49.156;7.810;2023-02-28T06:37:26;7.40;;;4.65;;
75593;SDS011;64176;49.156;7.810;2023-02-28T06:40:11;6.63;;;4.60;;
75593;SDS011;64176;49.156;7.810;2023-02-28T06:42:59;6.05;;;5.35;;
75593;SDS011;64176;49.156;7.810;2023-02-28T06:45:43;6.68;;;5.07;;
75593;SDS011;64176;49.156;7.810;2023-02-28T06:48:28;8.77;;;4.72;;
75593;SDS011;64176;49.156;7.810;2023-02-28T06:51:13;7.35;;;4.18;;
75593;SDS011;64176;49.156;7.810;2023-02-28T06:54:05;6.45;;;3.90;;
75593;SDS011;64176;49.156;7.810;2023-02-28T06:56:53;5.50;;;3.78;;
75593;SDS011;64176;49.156;7.810;2023-02-28T06:59:40;3.88;;;3.10;;
75593;SDS011;64176;49.156;7.810;2023-02-28T07:02:26;9.15;;;6.50;;
75593;SDS011;64176;49.156;7.810;2023-02-28T07:05:11;9.80;;;6.82;;
75593;SDS011;64176;49.156;7.810;2023-02-28T07:07:57;5.70;;;3.97;;
75593;SDS011;64176;49.156;7.810;2023-02-28T07:10:44;5.90;;;3.20;;
75593;SDS011;64176;49.156;7.810;2023-02-28T07:13:28;6.38;;;4.22;;
75593;SDS011;64176;49.156;7.810;2023-02-28T07:16:12;6.38;;;4.70;;
75593;SDS011;64176;49.156;7.810;2023-02-28T07:18:57;10.43;;;5.82;;
75593;SDS011;64176;49.156;7.810;2023-02-28T07:21:41;7.55;;;5.25;;
75593;SDS011;64176;49.156;7.810;2023-02-28T07:24:25;6.75;;;4.32;;
75593;SDS011;64176;49.156;7.810;2023-02-28T07:27:15;6.45;;;4.85;;
75593;SDS011;64176;49.156;7.810;2023-02-28T07:30:09;5.53;;;3.25;;
75593;SDS011;64176;49.156;7.810;2023-02-28T07:32:54;8.73;;;5.85;;
75593;SDS011;64176;49.156;7.810;2023-02-28T07:35:39;6.97;;;5.93;;
75593;SDS011;64176;49.156;7.810;2023-02-28T07:38:24;5.72;;;3.95;;
75593;SDS011;64176;49.156;7.810;2023-02-28T07:41:08;7.53;;;4.53;;
75593;SDS011;64176;49.156;7.810;2023-02-28T07:43:54;5.40;;;4.30;;
75593;SDS011;64176;49.156;7.810;2023-02-28T07:46:39;6.80;;;4.60;;
75593;SDS011;64176;49.156;7.810;2023-02-28T07:49:23;7.60;;;5.47;;
75593;SDS011;64176;49.156;7.810;2023-02-28T07:52:07;8.73;;;4.88;;
75593;SDS011;64176;49.156;7.810;2023-02-28T07:54:54;6.35;;;4.45;;
75593;SDS011;64176;49.156;7.810;2023-02-28T07:57:39;5.63;;;3.95;;
75593;SDS011;64176;49.156;7.810;2023-02-28T08:00:24;5.20;;;3.78;;
75593;SDS011;64176;49.156;7.810;2023-02-28T08:03:11;6.22;;;4.55;;
75593;SDS011;64176;49.156;7.810;2023-02-28T08:05:56;5.38;;;3.90;;
75593;SDS011;64176;49.156;7.810;2023-02-28T08:08:40;8.48;;;4.35;;
75593;SDS011;64176;49.156;7.810;2023-02-28T08:11:24;7.40;;;4.68;;
75593;SDS011;64176;49.156;7.810;2023-02-28T08:14:10;4.68;;;3.95;;
75593;SDS011;64176;49.156;7.810;2023-02-28T08:16:54;22.67;;;9.65;;
75593;SDS011;64176;49.156;7.810;2023-02-28T08:19:44;8.77;;;6.90;;
75593;SDS011;64176;49.156;7.810;2023-02-28T08:22:28;5.95;;;3.78;;
75593;SDS011;64176;49.156;7.810;2023-02-28T08:25:15;7.22;;;5.75;;
75593;SDS011;64176;49.156;7.810;2023-02-28T08:28:02;6.05;;;4.60;;
75593;SDS011;64176;49.156;7.810;2023-02-28T08:30:51;6.55;;;4.65;;
75593;SDS011;64176;49.156;7.810;2023-02-28T08:33:35;11.63;;;7.13;;
75593;SDS011;64176;49.156;7.810;2023-02-28T08:36:20;9.98;;;6.50;;
75593;SDS011;64176;49.156;7.810;2023-02-28T08:39:08;8.45;;;5.70;;
75593;SDS011;64176;49.156;7.810;2023-02-28T08:41:52;7.82;;;5.20;;
75593;SDS011;64176;49.156;7.810;2023-02-28T08:44:39;11.07;;;6.72;;
75593;SDS011;64176;49.156;7.810;2023-02-28T08:47:25;7.40;;;5.43;;
75593;SDS011;64176;49.156;7.810;2023-02-28T08:50:12;8.13;;;5.45;;
75593;SDS011;64176;49.156;7.810;2023-02-28T08:52:58;8.13;;;5.07;;
75593;SDS011;64176;49.156;7.810;2023-02-28T08:55:43;10.05;;;6.93;;
75593;SDS011;64176;49.156;7.810;2023-02-28T08:58:28;10.10;;;6.32;;
75593;SDS011;64176;49.156;7.810;2023-02-28T09:04:00;13.07;;;10.23;;
75593;SDS011;64176;49.156;7.810;2023-02-28T09:06:47;10.20;;;7.28;;
75593;SDS011;64176;49.156;7.810;2023-02-28T09:09:32;6.97;;;5.30;;
75593;SDS011;64176;49.156;7.810;2023-02-28T09:12:22;8.10;;;6.13;;
75593;SDS011;64176;49.156;7.810;2023-02-28T09:15:08;18.33;;;9.13;;
75593;SDS011;64176;49.156;7.810;2023-02-28T09:17:57;10.50;;;6.95;;
75593;SDS011;64176;49.156;7.810;2023-02-28T09:20:42;10.23;;;6.50;;
75593;SDS011;64176;49.156;7.810;2023-02-28T09:23:29;7.30;;;5.38;;
75593;SDS011;64176;49.156;7.810;2023-02-28T09:26:20;10.13;;;7.05;;
75593;SDS011;64176;49.156;7.810;2023-02-28T09:29:12;8.35;;;6.82;;
75593;SDS011;64176;49.156;7.810;2023-02-28T09:31:56;9.07;;;6.65;;
75593;SDS011;64176;49.156;7.810;2023-02-28T09:34:42;10.25;;;6.15;;
75593;SDS011;64176;49.156;7.810;2023-02-28T09:37:28;20.40;;;10.77;;
75593;SDS011;64176;49.156;7.810;2023-02-28T09:40:12;11.90;;;8.10;;
75593;SDS011;64176;49.156;7.810;2023-02-28T09:42:58;7.18;;;6.25;;
75593;SDS011;64176;49.156;7.810;2023-02-28T09:45:46;8.32;;;5.47;;
75593;SDS011;64176;49.156;7.810;2023-02-28T09:48:35;5.95;;;5.18;;
75593;SDS011;64176;49.156;7.810;2023-02-28T09:54:43;10.43;;;6.35;;
75593;SDS011;64176;49.156;7.810;2023-02-28T09:57:35;9.07;;;5.88;;
75593;SDS011;64176;49.156;7.810;2023-02-28T10:00:24;6.63;;;4.32;;
75593;SDS011;64176;49.156;7.810;2023-02-28T10:06:12;7.70;;;5.97;;
75593;SDS011;64176;49.156;7.810;2023-02-28T10:09:04;7.32;;;6.38;;
75593;SDS011;64176;49.156;7.810;2023-02-28T10:11:59;9.57;;;6.65;;
75593;SDS011;64176;49.156;7.810;2023-02-28T10:14:51;12.60;;;7.90;;
75593;SDS011;64176;49.156;7.810;2023-02-28T10:17:43;8.13;;;5.63;;
75593;SDS011;64176;49.156;7.810;2023-02-28T10:20:36;7.47;;;5.15;;
75593;SDS011;64176;49.156;7.810;2023-02-28T10:23:25;11.10;;;6.85;;
75593;SDS011;64176;49.156;7.810;2023-02-28T10:26:17;8.95;;;5.35;;
75593;SDS011;64176;49.156;7.810;2023-02-28T10:29:01;9.45;;;5.68;;
75593;SDS011;64176;49.156;7.810;2023-02-28T10:31:47;7.88;;;5.65;;
75593;SDS011;64176;49.156;7.810;2023-02-28T10:34:34;8.63;;;6.85;;
75593;SDS011;64176;49.156;7.810;2023-02-28T10:37:21;9.45;;;5.88;;
75593;SDS011;64176;49.156;7.810;2023-02-28T10:40:05;12.63;;;8.65;;
75593;SDS011;64176;49.156;7.810;2023-02-28T10:46:02;21.33;;;11.25;;
75593;SDS011;64176;49.156;7.810;2023-02-28T10:49:03;11.35;;;7.85;;
75593;SDS011;64176;49.156;7.810;2023-02-28T10:51:57;9.38;;;5.90;;
75593;SDS011;64176;49.156;7.810;2023-02-28T10:54:45;14.82;;;7.38;;
75593;SDS011;64176;49.156;7.810;2023-02-28T10:57:30;10.30;;;6.32;;
75593;SDS011;64176;49.156;7.810;2023-02-28T11:03:02;8.63;;;6.13;;
75593;SDS011;64176;49.156;7.810;2023-02-28T11:06:17;9.65;;;6.13;;
75593;SDS011;64176;49.156;7.810;2023-02-28T11:09:16;7.80;;;5.50;;
75593;SDS011;64176;49.156;7.810;2023-02-28T11:12:07;9.20;;;5.82;;
75593;SDS011;64176;49.156;7.810;2023-02-28T11:15:06;9.20;;;5.80;;
75593;SDS011;64176;49.156;7.810;2023-02-28T11:20:56;7.22;;;5.20;;
75593;SDS011;64176;49.156;7.810;2023-02-28T11:23:43;10.65;;;5.85;;
75593;SDS011;64176;49.156;7.810;2023-02-28T11:26:41;9.40;;;5.88;;
75593;SDS011;64176;49.156;7.810;2023-02-28T11:29:34;11.20;;;6.30;;
75593;SDS011;64176;49.156;7.810;2023-02-28T11:32:30;7.18;;;5.72;;
75593;SDS011;64176;49.156;7.810;2023-02-28T11:35:33;13.25;;;7.53;;
75593;SDS011;64176;49.156;7.810;2023-02-28T11:38:20;14.20;;;6.25;;
75593;SDS011;64176;49.156;7.810;2023-02-28T11:46:58;13.60;;;10.40;;
75593;SDS011;64176;49.156;7.810;2023-02-28T11:55:20;14.35;;;8.88;;
75593;SDS011;64176;49.156;7.810;2023-02-28T11:58:27;11.63;;;10.40;;
75593;SDS011;64176;49.156;7.810;2023-02-28T12:07:42;12.30;;;8.45;;
75593;SDS011;64176;49.156;7.810;2023-02-28T12:11:04;6.25;;;5.05;;
75593;SDS011;64176;49.156;7.810;2023-02-28T12:17:01;10.65;;;6.00;;
75593;SDS011;64176;49.156;7.810;2023-02-28T12:20:11;10.77;;;6.55;;
75593;SDS011;64176;49.156;7.810;2023-02-28T12:26:07;10.00;;;7.15;;
75593;SDS011;64176;49.156;7.810;2023-02-28T12:29:19;9.35;;;5.38;;
75593;SDS011;64176;49.156;7.810;2023-02-28T12:32:21;10.18;;;6.10;;
75593;SDS011;64176;49.156;7.810;2023-02-28T12:35:12;5.40;;;4.70;;
75593;SDS011;64176;49.156;7.810;2023-02-28T12:38:09;6.07;;;5.47;;
75593;SDS011;64176;49.156;7.810;2023-02-28T12:44:08;8.52;;;5.63;;
75593;SDS011;64176;49.156;7.810;2023-02-28T12:46:57;9.90;;;7.05;;
75593;SDS011;64176;49.156;7.810;2023-02-28T12:49:46;10.90;;;5.97;;
75593;SDS011;64176;49.156;7.810;2023-02-28T12:58:29;7.80;;;6.13;;
75593;SDS011;64176;49.156;7.810;2023-02-28T13:01:36;9.95;;;7.45;;
75593;SDS011;64176;49.156;7.810;2023-02-28T13:08:12;9.05;;;6.72;;
75593;SDS011;64176;49.156;7.810;2023-02-28T13:10:40;7.18;;;5.45;;
75593;SDS011;64176;49.156;7.810;2023-02-28T13:13:31;9.00;;;7.50;;
75593;SDS011;64176;49.156;7.810;2023-02-28T13:16:15;14.55;;;9.23;;
75593;SDS011;64176;49.156;7.810;2023-02-28T13:19:10;12.10;;;7.45;;
75593;SDS011;64176;49.156;7.810;2023-02-28T13:21:57;6.75;;;5.03;;
75593;SDS011;64176;49.156;7.810;2023-02-28T13:24:51;16.70;;;9.45;;
75593;SDS011;64176;49.156;7.810;2023-02-28T13:27:39;19.58;;;11.95;;
75593;SDS011;64176;49.156;7.810;2023-02-28T13:33:59;9.77;;;6.93;;
75593;SDS011;64176;49.156;7.810;2023-02-28T13:36:43;10.15;;;7.38;;
75593;SDS011;64176;49.156;7.810;2023-02-28T13:42:33;10.20;;;8.18;;
75593;SDS011;64176;49.156;7.810;2023-02-28T13:45:33;10.15;;;6.38;;
75593;SDS011;64176;49.156;7.810;2023-02-28T13:48:23;29.45;;;15.32;;
75593;SDS011;64176;49.156;7.810;2023-02-28T13:51:26;8.48;;;5.70;;
75593;SDS011;64176;49.156;7.810;2023-02-28T14:07:19;10.90;;;8.23;;
75593;SDS011;64176;49.156;7.810;2023-02-28T14:10:16;8.38;;;5.88;;
75593;SDS011;64176;49.156;7.810;2023-02-28T14:13:12;11.55;;;7.55;;
75593;SDS011;64176;49.156;7.810;2023-02-28T14:16:00;10.15;;;8.40;;
75593;SDS011;64176;49.156;7.810;2023-02-28T14:19:29;10.85;;;9.65;;
75593;SDS011;64176;49.156;7.810;2023-02-28T14:41:43;10.98;;;9.00;;
75593;SDS011;64176;49.156;7.810;2023-02-28T14:44:31;10.70;;;7.78;;
75593;SDS011;64176;49.156;7.810;2023-02-28T14:47:19;11.93;;;7.57;;
75593;SDS011;64176;49.156;7.810;2023-02-28T14:50:05;12.90;;;8.27;;
75593;SDS011;64176;49.156;7.810;2023-02-28T14:52:53;11.88;;;10.52;;
75593;SDS011;64176;49.156;7.810;2023-02-28T14:55:43;11.35;;;9.57;;
75593;SDS011;64176;49.156;7.810;2023-02-28T14:58:33;19.67;;;12.77;;
75593;SDS011;64176;49.156;7.810;2023-02-28T15:01:19;12.68;;;9.73;;
75593;SDS011;64176;49.156;7.810;2023-02-28T15:04:11;10.50;;;6.40;;
75593;SDS011;64176;49.156;7.810;2023-02-28T15:07:10;9.05;;;5.68;;
75593;SDS011;64176;49.156;7.810;2023-02-28T15:10:08;10.75;;;7.78;;
75593;SDS011;64176;49.156;7.810;2023-02-28T15:15:50;11.70;;;9.70;;
75593;SDS011;64176;49.156;7.810;2023-02-28T15:18:49;14.95;;;10.07;;
75593;SDS011;64176;49.156;7.810;2023-02-28T15:21:41;14.40;;;9.32;;
75593;SDS011;64176;49.156;7.810;2023-02-28T15:30:15;12.63;;;8.77;;
75593;SDS011;64176;49.156;7.810;2023-02-28T15:39:21;12.52;;;7.57;;
75593;SDS011;64176;49.156;7.810;2023-02-28T15:42:18;10.77;;;6.93;;
75593;SDS011;64176;49.156;7.810;2023-02-28T15:45:25;10.25;;;7.28;;
75593;SDS011;64176;49.156;7.810;2023-02-28T15:48:22;23.65;;;12.10;;
75593;SDS011;64176;49.156;7.810;2023-02-28T15:51:20;11.60;;;8.23;;
75593;SDS011;64176;49.156;7.810;2023-02-28T15:54:08;10.38;;;8.45;;
75593;SDS011;64176;49.156;7.810;2023-02-28T15:57:01;9.30;;;6.57;;
75593;SDS011;64176;49.156;7.810;2023-02-28T15:59:57;14.00;;;8.25;;
75593;SDS011;64176;49.156;7.810;2023-02-28T16:02:44;11.27;;;6.75;;
75593;SDS011;64176;49.156;7.810;2023-02-28T16:05:29;11.32;;;7.70;;
75593;SDS011;64176;49.156;7.810;2023-02-28T16:08:15;10.10;;;7.13;;
75593;SDS011;64176;49.156;7.810;2023-02-28T16:10:59;12.68;;;9.25;;
75593;SDS011;64176;49.156;7.810;2023-02-28T16:13:43;13.40;;;8.43;;
75593;SDS011;64176;49.156;7.810;2023-02-28T16:16:27;9.73;;;7.40;;
75593;SDS011;64176;49.156;7.810;2023-02-28T16:19:19;11.45;;;6.72;;
75593;SDS011;64176;49.156;7.810;2023-02-28T16:22:07;6.93;;;5.60;;
75593;SDS011;64176;49.156;7.810;2023-02-28T16:24:58;9.05;;;6.32;;
75593;SDS011;64176;49.156;7.810;2023-02-28T16:27:46;11.13;;;8.02;;
75593;SDS011;64176;49.156;7.810;2023-02-28T16:30:32;12.95;;;8.88;;
75593;SDS011;64176;49.156;7.810;2023-02-28T16:33:16;16.55;;;6.72;;
75593;SDS011;64176;49.156;7.810;2023-02-28T16:36:00;12.52;;;8.88;;
75593;SDS011;64176;49.156;7.810;2023-02-28T16:38:45;14.90;;;10.18;;
75593;SDS011;64176;49.156;7.810;2023-02-28T16:41:29;11.90;;;8.68;;
75593;SDS011;64176;49.156;7.810;2023-02-28T16:44:33;11.60;;;7.65;;
75593;SDS011;64176;49.156;7.810;2023-02-28T16:47:19;11.30;;;7.15;;
75593;SDS011;64176;49.156;7.810;2023-02-28T16:50:08;10.75;;;8.40;;
75593;SDS011;64176;49.156;7.810;2023-02-28T16:53:01;12.07;;;7.35;;
75593;SDS011;64176;49.156;7.810;2023-02-28T16:55:45;11.07;;;7.68;;
75593;SDS011;64176;49.156;7.810;2023-02-28T16:58:31;12.02;;;10.25;;
75593;SDS011;64176;49.156;7.810;2023-02-28T17:01:17;11.27;;;8.13;;
75593;SDS011;64176;49.156;7.810;2023-02-28T17:04:08;10.52;;;7.53;;
75593;SDS011;64176;49.156;7.810;2023-02-28T17:06:56;15.70;;;9.25;;
75593;SDS011;64176;49.156;7.810;2023-02-28T17:09:43;9.57;;;7.93;;
75593;SDS011;64176;49.156;7.810;2023-02-28T17:12:28;8.40;;;5.25;;
75593;SDS011;64176;49.156;7.810;2023-02-28T17:15:15;11.65;;;6.85;;
75593;SDS011;64176;49.156;7.810;2023-02-28T17:18:01;12.45;;;7.28;;
75593;SDS011;64176;49.156;7.810;2023-02-28T17:20:48;13.82;;;9.45;;
75593;SDS011;64176;49.156;7.810;2023-02-28T17:23:35;14.00;;;9.00;;
75593;SDS011;64176;49.156;7.810;2023-02-28T17:26:21;12.13;;;7.53;;
75593;SDS011;64176;49.156;7.810;2023-02-28T17:29:13;14.80;;;10.27;;
75593;SDS011;64176;49.156;7.810;2023-02-28T17:32:02;10.48;;;6.90;;
75593;SDS011;64176;49.156;7.810;2023-02-28T17:34:48;10.88;;;7.57;;
75593;SDS011;64176;49.156;7.810;2023-02-28T17:37:32;17.02;;;10.85;;
75593;SDS011;64176;49.156;7.810;2023-02-28T17:40:20;18.42;;;12.32;;
75593;SDS011;64176;49.156;7.810;2023-02-28T17:43:06;38.13;;;21.05;;
75593;SDS011;64176;49.156;7.810;2023-02-28T17:45:50;29.10;;;18.02;;
75593;SDS011;64176;49.156;7.810;2023-02-28T17:48:35;15.70;;;9.00;;
75593;SDS011;64176;49.156;7.810;2023-02-28T17:54:11;19.75;;;12.95;;
75593;SDS011;64176;49.156;7.810;2023-02-28T17:56:57;26.33;;;15.70;;
75593;SDS011;64176;49.156;7.810;2023-02-28T17:59:46;15.73;;;9.40;;
75593;SDS011;64176;49.156;7.810;2023-02-28T18:02:35;15.93;;;10.07;;
75593;SDS011;64176;49.156;7.810;2023-02-28T18:05:19;15.15;;;10.35;;
75593;SDS011;64176;49.156;7.810;2023-02-28T18:08:03;18.30;;;13.32;;
75593;SDS011;64176;49.156;7.810;2023-02-28T18:10:52;11.73;;;8.68;;
75593;SDS011;64176;49.156;7.810;2023-02-28T18:13:36;13.52;;;9.05;;
75593;SDS011;64176;49.156;7.810;2023-02-28T18:19:11;9.70;;;6.80;;
75593;SDS011;64176;49.156;7.810;2023-02-28T18:21:59;9.82;;;8.82;;
75593;SDS011;64176;49.156;7.810;2023-02-28T18:24:43;10.40;;;7.65;;
75593;SDS011;64176;49.156;7.810;2023-02-28T18:27:30;15.27;;;8.50;;
75593;SDS011;64176;49.156;7.810;2023-02-28T18:30:14;11.57;;;7.50;;
75593;SDS011;64176;49.156;7.810;2023-02-28T18:32:58;10.07;;;7.55;;
75593;SDS011;64176;49.156;7.810;2023-02-28T18:35:44;12.65;;;9.93;;
75593;SDS011;64176;49.156;7.810;2023-02-28T18:38:28;12.88;;;7.63;;
75593;SDS011;64176;49.156;7.810;2023-02-28T18:41:15;10.27;;;6.93;;
75593;SDS011;64176;49.156;7.810;2023-02-28T18:44:00;13.43;;;8.05;;
75593;SDS011;64176;49.156;7.810;2023-02-28T18:46:48;15.32;;;8.90;;
75593;SDS011;64176;49.156;7.810;2023-02-28T18:49:37;18.00;;;11.38;;
75593;SDS011;64176;49.156;7.810;2023-02-28T18:52:23;15.90;;;9.98;;
75593;SDS011;64176;49.156;7.810;2023-02-28T18:55:07;38.70;;;20.42;;
75593;SDS011;64176;49.156;7.810;2023-02-28T18:57:53;16.90;;;9.90;;
75593;SDS011;64176;49.156;7.810;2023-02-28T19:00:37;13.77;;;8.23;;
75593;SDS011;64176;49.156;7.810;2023-02-28T19:03:21;17.77;;;10.43;;
75593;SDS011;64176;49.156;7.810;2023-02-28T19:06:05;18.42;;;11.75;;
75593;SDS011;64176;49.156;7.810;2023-02-28T19:08:53;23.60;;;14.23;;
75593;SDS011;64176;49.156;7.810;2023-02-28T19:11:38;34.05;;;17.95;;
75593;SDS011;64176;49.156;7.810;2023-02-28T19:14:25;29.73;;;17.67;;
75593;SDS011;64176;49.156;7.810;2023-02-28T19:17:08;17.52;;;11.75;;
75593;SDS011;64176;49.156;7.810;2023-02-28T19:19:57;27.17;;;14.73;;
75593;SDS011;64176;49.156;7.810;2023-02-28T19:22:43;23.40;;;13.80;;
75593;SDS011;64176;49.156;7.810;2023-02-28T19:25:27;18.60;;;11.25;;
75593;SDS011;64176;49.156;7.810;2023-02-28T19:28:16;17.95;;;11.57;;
75593;SDS011;64176;49.156;7.810;2023-02-28T19:31:01;15.75;;;9.90;;
75593;SDS011;64176;49.156;7.810;2023-02-28T19:33:50;16.33;;;11.57;;